Time;durP1;ratioP1;P1;durP2;ratioP2;P2;SDS_P1;SDS_P2;PMS_P1;PMS_P2;Temp;Humidity;BMP_temperature;BMP_pressure;BME280_temperature;BME280_humidity;BME280_pressure;Samples;Min_cycle;Max_cycle;Signal;HPM_P1;HPM_P2
2023/10/29 00:00:12;;;;;;;0.98;0.98;;;15.00;77.30;;;;;;5020039;28;20041;-76
2023/10/29 00:02:38;;;;;;;0.80;0.80;;;15.00;77.30;;;;;;5018087;28;20550;-75
2023/10/29 00:05:04;;;;;;;1.10;0.90;;;15.00;77.30;;;;;;5033479;28;20029;-76
2023/10/29 00:07:30;;;;;;;0.90;0.90;;;15.00;77.30;;;;;;5033012;28;20030;-77
2023/10/29 00:09:56;;;;;;;1.10;1.10;;;15.00;77.30;;;;;;5032533;28;20033;-78
2023/10/29 00:12:22;;;;;;;1.10;1.00;;;15.00;77.30;;;;;;5000502;28;20561;-75
2023/10/29 00:14:47;;;;;;;0.98;0.98;;;15.00;77.30;;;;;;5037580;28;20041;-75
2023/10/29 00:17:13;;;;;;;0.90;0.90;;;15.00;77.30;;;;;;5016176;28;20069;-75
2023/10/29 00:19:39;;;;;;;1.00;0.95;;;15.00;77.30;;;;;;5016988;28;20120;-77
2023/10/29 00:22:05;;;;;;;1.13;1.02;;;15.00;77.30;;;;;;5032743;28;20040;-75
2023/10/29 00:24:30;;;;;;;1.02;0.98;;;15.00;77.40;;;;;;5018040;28;20033;-75
2023/10/29 00:26:56;;;;;;;1.30;1.08;;;15.00;77.40;;;;;;5033945;28;20054;-75
2023/10/29 00:29:22;;;;;;;0.90;0.90;;;15.00;77.40;;;;;;5019016;28;20099;-75
2023/10/29 00:31:48;;;;;;;0.77;0.77;;;15.00;77.40;;;;;;5018179;28;20494;-77
2023/10/29 00:34:14;;;;;;;0.90;0.90;;;15.00;77.30;;;;;;5032931;28;20478;-75
2023/10/29 00:36:39;;;;;;;1.00;1.00;;;15.00;77.40;;;;;;5035875;28;20017;-75
2023/10/29 00:39:07;;;;;;;0.95;0.95;;;15.00;77.40;;;;;;5016747;28;20125;-76
2023/10/29 00:41:33;;;;;;;0.82;0.80;;;15.00;77.40;;;;;;5035078;28;20427;-75
2023/10/29 00:43:58;;;;;;;1.27;0.90;;;15.00;77.40;;;;;;5002074;28;20059;-75
2023/10/29 00:46:25;;;;;;;1.17;0.90;;;15.00;77.50;;;;;;5033521;28;20441;-75
2023/10/29 00:48:51;;;;;;;0.80;0.80;;;15.00;77.40;;;;;;5016913;28;20117;-75
2023/10/29 00:51:18;;;;;;;0.90;0.90;;;15.00;77.50;;;;;;5017150;28;20041;-76
2023/10/29 00:53:45;;;;;;;0.73;0.73;;;15.00;77.50;;;;;;5033966;28;20041;-75
2023/10/29 00:56:12;;;;;;;0.80;0.80;;;15.00;77.50;;;;;;5000029;28;20022;-75
2023/10/29 00:58:40;;;;;;;0.95;0.95;;;15.00;77.50;;;;;;5032680;28;20513;-76
2023/10/29 01:01:06;;;;;;;0.80;0.80;;;15.10;77.50;;;;;;5031749;28;20116;-76
2023/10/29 01:03:32;;;;;;;0.95;0.85;;;15.00;77.50;;;;;;5034987;28;20112;-75
2023/10/29 01:05:58;;;;;;;0.70;0.70;;;15.10;77.50;;;;;;4999130;28;20059;-75
2023/10/29 01:08:27;;;;;;;0.80;0.80;;;15.10;77.50;;;;;;5031408;28;20083;-76
2023/10/29 01:10:53;;;;;;;0.70;0.70;;;15.10;77.60;;;;;;5026138;28;20038;-75
2023/10/29 01:13:19;;;;;;;1.13;0.90;;;15.10;77.50;;;;;;5034413;28;20117;-75
2023/10/29 01:15:46;;;;;;;0.90;0.90;;;15.00;77.40;;;;;;5016774;28;20128;-77
2023/10/29 01:18:11;;;;;;;1.17;0.90;;;15.10;77.50;;;;;;5034066;28;20054;-75
2023/10/29 01:20:38;;;;;;;0.80;0.77;;;15.10;77.50;;;;;;4998233;28;20075;-75
2023/10/29 01:23:04;;;;;;;1.02;0.80;;;15.10;77.50;;;;;;5035356;28;20034;-75
2023/10/29 01:25:30;;;;;;;1.00;0.85;;;15.10;77.50;;;;;;5033131;28;20033;-75
2023/10/29 01:27:56;;;;;;;1.02;0.90;;;15.10;77.50;;;;;;5032476;28;20021;-75
2023/10/29 01:30:22;;;;;;;0.80;0.80;;;15.10;77.50;;;;;;4999954;28;20017;-75
2023/10/29 01:32:47;;;;;;;0.80;0.80;;;15.10;77.50;;;;;;5033210;28;20092;-75
2023/10/29 01:35:13;;;;;;;0.80;0.80;;;15.10;77.50;;;;;;5031776;28;20120;-75
2023/10/29 01:37:39;;;;;;;0.88;0.88;;;15.10;77.50;;;;;;5032192;28;20036;-75
2023/10/29 01:40:05;;;;;;;0.70;0.70;;;15.10;77.50;;;;;;5014914;28;20033;-76
2023/10/29 01:42:31;;;;;;;0.98;0.95;;;15.10;77.50;;;;;;5015523;28;20075;-76
2023/10/29 01:44:57;;;;;;;0.80;0.80;;;15.10;77.50;;;;;;5031487;28;20120;-75
2023/10/29 01:47:22;;;;;;;0.90;0.90;;;15.10;77.50;;;;;;4998399;28;20065;-75
2023/10/29 01:49:48;;;;;;;0.70;0.70;;;15.10;77.50;;;;;;5014131;28;20442;-75
2023/10/29 01:52:15;;;;;;;0.93;0.93;;;15.10;77.50;;;;;;5031595;28;20040;-75
2023/10/29 01:54:41;;;;;;;0.90;0.90;;;15.10;77.50;;;;;;5031330;28;20034;-75
2023/10/29 01:57:06;;;;;;;0.82;0.80;;;15.10;77.50;;;;;;5016759;28;20025;-75
2023/10/29 01:59:33;;;;;;;0.77;0.77;;;15.10;77.50;;;;;;5002102;28;20036;-76
2023/10/29 02:01:59;;;;;;;1.30;0.90;;;15.10;77.50;;;;;;4994481;28;20037;-76
2023/10/29 02:04:26;;;;;;;0.90;0.90;;;15.10;77.60;;;;;;5029829;28;20025;-75
2023/10/29 02:06:56;;;;;;;0.80;0.80;;;15.10;77.50;;;;;;4997254;28;20036;-75
2023/10/29 02:09:22;;;;;;;1.05;0.95;;;15.10;77.60;;;;;;5045943;28;20043;-76
2023/10/29 02:11:48;;;;;;;0.80;0.80;;;15.10;77.50;;;;;;5014899;28;20065;-75
2023/10/29 02:14:13;;;;;;;0.75;0.75;;;15.10;77.50;;;;;;5031067;28;20060;-76
2023/10/29 02:16:39;;;;;;;0.80;0.80;;;15.10;77.60;;;;;;5014158;28;20029;-75
2023/10/29 02:19:05;;;;;;;0.80;0.80;;;15.10;77.50;;;;;;5012759;28;20049;-75
2023/10/29 02:21:31;;;;;;;0.90;0.90;;;15.10;77.50;;;;;;5016395;28;20033;-76
2023/10/29 02:24:00;;;;;;;0.70;0.70;;;15.10;77.50;;;;;;4995915;28;20026;-76
2023/10/29 02:26:27;;;;;;;1.30;0.90;;;15.10;77.50;;;;;;4998348;28;20040;-75
2023/10/29 02:28:53;;;;;;;0.80;0.80;;;15.10;77.60;;;;;;5020067;28;20116;-76
2023/10/29 02:31:20;;;;;;;1.10;0.98;;;15.10;77.50;;;;;;5002956;28;20120;-75
2023/10/29 02:33:46;;;;;;;0.88;0.88;;;15.20;77.50;;;;;;5033511;28;20091;-78
2023/10/29 02:36:13;;;;;;;0.98;0.85;;;15.10;77.50;;;;;;5030147;28;20081;-75
2023/10/29 02:38:38;;;;;;;0.80;0.80;;;15.10;77.50;;;;;;5014035;28;20112;-77
2023/10/29 02:41:05;;;;;;;0.85;0.85;;;15.20;77.50;;;;;;5016173;28;20048;-75
2023/10/29 02:43:31;;;;;;;0.77;0.77;;;15.20;77.50;;;;;;5017346;28;20076;-75
2023/10/29 02:45:56;;;;;;;0.80;0.80;;;15.20;77.50;;;;;;5035648;28;20084;-75
2023/10/29 02:48:24;;;;;;;1.02;0.90;;;15.20;77.50;;;;;;4983926;28;20470;-75
2023/10/29 02:50:51;;;;;;;0.70;0.70;;;15.20;77.50;;;;;;5011186;28;20025;-78
2023/10/29 02:53:18;;;;;;;0.88;0.88;;;15.20;77.50;;;;;;5032447;28;20056;-75
2023/10/29 02:55:43;;;;;;;0.80;0.80;;;15.20;77.40;;;;;;5015689;28;20073;-75
2023/10/29 02:58:09;;;;;;;0.90;0.90;;;15.20;77.40;;;;;;5011249;28;20032;-77
2023/10/29 03:00:35;;;;;;;0.80;0.80;;;15.20;77.40;;;;;;4990115;28;20025;-76
2023/10/29 03:03:01;;;;;;;1.58;0.95;;;15.20;77.40;;;;;;5011010;28;20044;-75
2023/10/29 03:05:27;;;;;;;0.85;0.85;;;15.20;77.50;;;;;;5029925;28;20136;-75
2023/10/29 03:07:53;;;;;;;0.93;0.88;;;15.20;77.50;;;;;;5029905;28;20112;-76
2023/10/29 03:10:19;;;;;;;1.23;1.13;;;15.20;77.50;;;;;;5013849;28;20068;-76
2023/10/29 03:12:45;;;;;;;1.83;0.93;;;15.20;77.50;;;;;;5030230;28;20057;-75
2023/10/29 03:15:11;;;;;;;0.90;0.90;;;15.20;77.50;;;;;;5030943;28;20040;-77
2023/10/29 03:17:37;;;;;;;0.80;0.80;;;15.20;77.50;;;;;;5028728;28;20060;-77
2023/10/29 03:20:03;;;;;;;0.90;0.90;;;15.20;77.40;;;;;;4980492;28;20398;-76
2023/10/29 03:22:28;;;;;;;0.82;0.82;;;15.20;77.50;;;;;;5009970;28;20505;-76
2023/10/29 03:24:54;;;;;;;0.95;0.90;;;15.20;77.50;;;;;;4997684;28;20095;-76
2023/10/29 03:27:20;;;;;;;0.70;0.70;;;15.20;77.50;;;;;;5013187;28;20021;-77
2023/10/29 03:29:46;;;;;;;0.75;0.70;;;15.20;77.40;;;;;;5010684;28;20072;-76
2023/10/29 03:32:11;;;;;;;0.80;0.80;;;15.20;77.40;;;;;;5045639;28;20037;-75
2023/10/29 03:34:37;;;;;;;0.70;0.70;;;15.30;77.70;;;;;;5029684;28;20482;-75
2023/10/29 03:37:03;;;;;;;1.30;0.90;;;15.20;77.40;;;;;;5033047;28;20044;-75
2023/10/29 03:39:30;;;;;;;0.70;0.70;;;15.20;77.40;;;;;;4998429;28;20044;-75
2023/10/29 03:41:56;;;;;;;0.75;0.75;;;15.30;77.50;;;;;;5029028;28;20056;-75
2023/10/29 03:44:22;;;;;;;1.05;0.90;;;15.20;77.40;;;;;;4996409;28;20474;-79
2023/10/29 03:46:52;;;;;;;0.70;0.70;;;15.30;77.50;;;;;;5030853;28;20044;-76
2023/10/29 03:49:20;;;;;;;0.80;0.80;;;15.30;77.50;;;;;;5013620;28;20044;-77
2023/10/29 03:51:47;;;;;;;0.70;0.70;;;15.30;77.50;;;;;;5030076;28;20478;-75
2023/10/29 03:54:13;;;;;;;0.80;0.80;;;15.30;77.50;;;;;;5028482;28;20033;-75
2023/10/29 03:56:39;;;;;;;0.80;0.80;;;15.30;77.50;;;;;;5030361;28;20040;-75
2023/10/29 03:59:05;;;;;;;1.08;0.98;;;15.30;77.50;;;;;;5030618;28;20145;-76
2023/10/29 04:01:31;;;;;;;0.82;0.68;;;15.30;77.50;;;;;;5030088;28;20021;-75
2023/10/29 04:03:58;;;;;;;1.48;0.85;;;15.30;77.50;;;;;;5032405;28;20056;-77
2023/10/29 04:06:24;;;;;;;0.80;0.80;;;15.30;77.40;;;;;;5033034;28;20026;-75
2023/10/29 04:08:50;;;;;;;0.82;0.82;;;15.30;77.40;;;;;;5032893;28;20045;-77
2023/10/29 04:11:16;;;;;;;0.80;0.80;;;15.30;77.40;;;;;;5032486;28;20120;-75
2023/10/29 04:13:42;;;;;;;0.80;0.80;;;15.30;77.40;;;;;;5016105;28;20168;-75
2023/10/29 04:16:08;;;;;;;1.05;0.70;;;15.30;77.40;;;;;;4999058;28;20068;-75
2023/10/29 04:18:34;;;;;;;0.80;0.80;;;15.30;77.40;;;;;;5017712;28;20054;-76
2023/10/29 04:21:06;;;;;;;0.90;0.90;;;15.30;77.40;;;;;;5017940;28;20041;-75
2023/10/29 04:23:32;;;;;;;0.80;0.80;;;15.30;77.40;;;;;;5035448;28;20029;-75
2023/10/29 04:25:57;;;;;;;0.70;0.70;;;15.30;77.40;;;;;;5032271;28;20044;-78
2023/10/29 04:28:23;;;;;;;1.17;0.90;;;15.30;77.40;;;;;;5034670;28;20021;-75
2023/10/29 04:30:49;;;;;;;0.77;0.77;;;15.30;77.40;;;;;;5033937;28;20038;-75
2023/10/29 04:33:15;;;;;;;1.00;0.90;;;15.30;77.40;;;;;;5017208;28;20029;-74
2023/10/29 04:35:40;;;;;;;0.75;0.75;;;15.30;77.40;;;;;;5017402;28;20492;-76
2023/10/29 04:38:06;;;;;;;0.90;0.90;;;15.30;77.40;;;;;;4998888;28;20121;-75
2023/10/29 04:40:32;;;;;;;0.75;0.70;;;15.30;77.40;;;;;;5015064;28;20470;-76
2023/10/29 04:42:58;;;;;;;1.10;0.82;;;15.30;77.40;;;;;;5044533;28;20064;-79
2023/10/29 04:45:23;;;;;;;0.90;0.80;;;15.30;77.40;;;;;;5017873;28;20022;-75
2023/10/29 04:47:49;;;;;;;0.95;0.80;;;15.30;77.40;;;;;;5015433;28;20041;-78
2023/10/29 04:50:15;;;;;;;0.70;0.70;;;15.30;77.40;;;;;;5030616;28;20026;-76
2023/10/29 04:52:40;;;;;;;0.77;0.70;;;15.30;77.40;;;;;;4998361;28;20034;-75
2023/10/29 04:55:07;;;;;;;0.80;0.80;;;15.30;77.40;;;;;;5015205;28;20057;-75
2023/10/29 04:57:33;;;;;;;0.70;0.70;;;15.30;77.40;;;;;;4999138;28;20385;-75
2023/10/29 04:59:58;;;;;;;0.70;0.70;;;15.30;77.40;;;;;;5031340;28;20129;-76
2023/10/29 05:02:24;;;;;;;0.70;0.70;;;15.30;77.40;;;;;;4995678;28;20041;-76
2023/10/29 05:04:52;;;;;;;0.68;0.68;;;15.30;77.40;;;;;;5013927;28;20026;-75
2023/10/29 05:07:18;;;;;;;0.93;0.80;;;15.30;77.40;;;;;;5033530;28;20039;-75
2023/10/29 05:09:44;;;;;;;0.80;0.80;;;15.40;77.40;;;;;;5016319;28;20045;-76
2023/10/29 05:12:10;;;;;;;0.65;0.65;;;15.30;77.40;;;;;;5031870;28;20438;-76
2023/10/29 05:14:36;;;;;;;0.88;0.88;;;15.30;77.40;;;;;;5018695;28;20041;-75
2023/10/29 05:17:02;;;;;;;0.90;0.90;;;15.30;77.40;;;;;;5032479;28;20033;-77
2023/10/29 05:19:28;;;;;;;0.80;0.80;;;15.40;77.40;;;;;;5032764;28;20047;-78
2023/10/29 05:21:54;;;;;;;1.13;0.75;;;15.40;77.40;;;;;;5030922;28;20037;-76
2023/10/29 05:24:20;;;;;;;1.30;0.80;;;15.40;77.40;;;;;;5031264;28;20032;-75
2023/10/29 05:26:46;;;;;;;0.70;0.70;;;15.40;77.40;;;;;;5033648;28;20033;-76
2023/10/29 05:29:12;;;;;;;0.80;0.80;;;15.40;77.40;;;;;;5014910;28;20046;-76
2023/10/29 05:31:38;;;;;;;1.38;0.70;;;15.40;77.40;;;;;;5014143;28;20025;-76
2023/10/29 05:34:03;;;;;;;0.88;0.70;;;15.40;77.40;;;;;;5017882;28;20033;-76
2023/10/29 05:36:29;;;;;;;0.70;0.70;;;15.40;77.40;;;;;;5001733;28;20045;-75
2023/10/29 05:38:55;;;;;;;0.80;0.80;;;15.40;77.40;;;;;;5031583;28;20057;-75
2023/10/29 05:41:21;;;;;;;0.73;0.73;;;15.40;77.40;;;;;;5013095;28;20090;-77
2023/10/29 05:43:47;;;;;;;1.48;0.80;;;15.40;77.40;;;;;;5031235;28;20456;-75
2023/10/29 05:46:13;;;;;;;0.82;0.70;;;15.40;77.40;;;;;;5013232;28;20029;-75
2023/10/29 05:48:39;;;;;;;0.77;0.77;;;15.40;77.40;;;;;;5016948;28;20072;-75
2023/10/29 05:51:05;;;;;;;0.80;0.80;;;15.40;77.40;;;;;;5015871;28;20622;-77
2023/10/29 05:53:31;;;;;;;0.80;0.80;;;15.40;77.40;;;;;;5013042;28;20124;-75
2023/10/29 05:55:57;;;;;;;0.70;0.70;;;15.40;77.40;;;;;;5016208;28;20041;-75
2023/10/29 05:58:24;;;;;;;0.68;0.68;;;15.40;77.40;;;;;;5030016;28;20488;-75
2023/10/29 06:00:53;;;;;;;1.20;0.85;;;15.40;77.40;;;;;;5013918;28;20114;-76
2023/10/29 06:03:18;;;;;;;1.27;1.00;;;15.40;77.40;;;;;;5032734;28;20033;-76
2023/10/29 06:05:44;;;;;;;1.13;0.80;;;15.40;77.40;;;;;;5031721;28;20384;-74
2023/10/29 06:08:10;;;;;;;1.05;0.70;;;15.40;77.40;;;;;;5014111;28;20095;-76
2023/10/29 06:10:36;;;;;;;0.80;0.80;;;15.40;77.40;;;;;;5024705;28;20029;-75
2023/10/29 06:13:01;;;;;;;0.80;0.80;;;15.40;77.40;;;;;;5034678;28;20034;-75
2023/10/29 06:15:27;;;;;;;0.90;0.75;;;15.40;77.40;;;;;;5014785;28;20033;-76
2023/10/29 06:17:56;;;;;;;0.63;0.63;;;15.40;77.40;;;;;;5032958;28;20061;-75
2023/10/29 06:20:22;;;;;;;0.73;0.70;;;15.40;77.40;;;;;;5034354;28;20099;-77
2023/10/29 06:22:48;;;;;;;1.23;0.90;;;15.40;77.40;;;;;;5030099;28;20410;-75
2023/10/29 06:25:15;;;;;;;0.80;0.80;;;15.40;77.40;;;;;;4999857;28;20032;-75
2023/10/29 06:27:41;;;;;;;1.58;0.88;;;15.40;77.40;;;;;;4996710;28;20500;-75
2023/10/29 06:30:08;;;;;;;1.35;0.80;;;15.40;77.40;;;;;;5012964;28;20068;-76
2023/10/29 06:32:33;;;;;;;1.13;0.80;;;15.40;77.40;;;;;;5027139;28;20025;-75
2023/10/29 06:34:59;;;;;;;1.63;0.70;;;15.40;77.40;;;;;;5015478;28;20044;-75
2023/10/29 06:37:25;;;;;;;0.70;0.70;;;15.40;77.40;;;;;;5001832;28;20033;-75
2023/10/29 06:39:52;;;;;;;0.60;0.60;;;15.40;77.40;;;;;;5033819;28;20044;-75
2023/10/29 06:42:17;;;;;;;0.80;0.80;;;15.40;77.40;;;;;;5011000;28;20053;-75
2023/10/29 06:44:43;;;;;;;0.60;0.60;;;15.40;77.40;;;;;;5029501;28;20158;-75
2023/10/29 06:47:09;;;;;;;1.15;0.73;;;15.40;77.40;;;;;;5034553;28;20033;-75
2023/10/29 06:49:35;;;;;;;0.70;0.70;;;15.40;77.40;;;;;;5031158;28;20025;-75
2023/10/29 06:52:00;;;;;;;0.65;0.65;;;15.40;77.40;;;;;;5031184;28;20548;-75
2023/10/29 06:54:26;;;;;;;0.60;0.60;;;15.40;77.40;;;;;;5029097;28;20034;-76
2023/10/29 06:56:52;;;;;;;0.70;0.70;;;15.40;77.40;;;;;;5014181;28;20026;-75
2023/10/29 06:59:18;;;;;;;1.45;0.77;;;15.40;77.40;;;;;;5014303;28;20524;-75
2023/10/29 07:01:45;;;;;;;1.35;0.60;;;15.40;77.40;;;;;;5014063;28;20264;-75
2023/10/29 07:04:11;;;;;;;0.63;0.63;;;15.40;77.40;;;;;;5029345;28;20036;-74
2023/10/29 07:06:37;;;;;;;0.65;0.65;;;15.40;77.40;;;;;;5012410;28;20025;-75
2023/10/29 07:09:03;;;;;;;0.82;0.75;;;15.40;77.40;;;;;;5015830;28;20041;-75
2023/10/29 07:11:29;;;;;;;0.80;0.70;;;15.30;77.30;;;;;;5016846;28;20607;-76
2023/10/29 07:13:55;;;;;;;0.77;0.77;;;15.40;77.40;;;;;;5033681;28;20106;-75
2023/10/29 07:16:21;;;;;;;1.05;0.70;;;15.40;77.40;;;;;;5018921;28;20032;-75
2023/10/29 07:18:47;;;;;;;0.60;0.60;;;15.40;77.40;;;;;;5023085;28;20128;-75
2023/10/29 07:21:14;;;;;;;1.08;0.80;;;15.30;77.40;;;;;;5038101;28;20454;-75
2023/10/29 07:23:41;;;;;;;0.88;0.73;;;15.30;77.40;;;;;;5033565;28;20095;-76
2023/10/29 07:26:06;;;;;;;0.82;0.82;;;15.30;77.40;;;;;;5006426;28;20025;-75
2023/10/29 07:28:34;;;;;;;0.82;0.80;;;15.30;77.30;;;;;;5022694;28;20103;-76
2023/10/29 07:31:03;;;;;;;0.70;0.70;;;15.30;77.30;;;;;;5017022;28;20083;-76
2023/10/29 07:33:29;;;;;;;0.80;0.77;;;15.30;77.30;;;;;;5033214;28;20029;-75
2023/10/29 07:35:55;;;;;;;1.08;0.80;;;15.30;77.30;;;;;;5035161;28;20084;-76
2023/10/29 07:38:21;;;;;;;0.73;0.73;;;15.30;77.30;;;;;;5007832;28;20032;-75
2023/10/29 07:40:48;;;;;;;1.02;0.82;;;15.30;77.30;;;;;;5043567;28;20494;-75
2023/10/29 07:43:15;;;;;;;2.03;0.80;;;15.40;77.40;;;;;;5020678;28;20025;-75
2023/10/29 07:45:41;;;;;;;0.98;0.85;;;15.30;77.30;;;;;;5019018;28;20034;-74
2023/10/29 07:48:06;;;;;;;1.30;0.80;;;15.30;77.30;;;;;;5005306;28;20029;-75
2023/10/29 07:50:32;;;;;;;1.38;0.80;;;15.30;77.30;;;;;;5028759;28;20076;-75
2023/10/29 07:52:58;;;;;;;1.15;0.80;;;15.30;77.30;;;;;;5025887;28;20045;-75
2023/10/29 07:55:24;;;;;;;1.52;0.90;;;15.40;77.30;;;;;;5037474;28;20025;-75
2023/10/29 07:57:49;;;;;;;0.80;0.80;;;15.40;77.30;;;;;;4989362;28;20445;-75
2023/10/29 08:00:16;;;;;;;2.30;0.80;;;15.40;77.30;;;;;;5037986;28;20029;-75
2023/10/29 08:02:42;;;;;;;0.70;0.68;;;15.40;77.30;;;;;;5012428;28;20056;-75
2023/10/29 08:05:10;;;;;;;1.10;0.75;;;15.40;77.30;;;;;;5010625;28;20090;-74
2023/10/29 08:07:36;;;;;;;1.83;0.80;;;15.40;77.30;;;;;;5022373;28;20033;-75
2023/10/29 08:10:03;;;;;;;0.73;0.70;;;15.40;77.30;;;;;;5024496;28;20124;-75
2023/10/29 08:12:29;;;;;;;0.70;0.70;;;15.40;77.30;;;;;;5038225;28;20032;-75
2023/10/29 08:14:55;;;;;;;1.00;0.90;;;15.40;77.30;;;;;;5035873;28;20034;-76
2023/10/29 08:17:21;;;;;;;2.33;1.10;;;15.40;77.30;;;;;;5038917;28;20382;-76
2023/10/29 08:19:47;;;;;;;2.00;0.90;;;15.40;77.30;;;;;;5021834;28;20087;-75
2023/10/29 08:22:13;;;;;;;2.13;0.88;;;15.40;77.30;;;;;;5014818;28;20034;-75
2023/10/29 08:24:40;;;;;;;0.77;0.70;;;15.40;77.30;;;;;;5036983;28;20221;-75
2023/10/29 08:27:08;;;;;;;1.88;0.90;;;15.40;77.30;;;;;;5045551;28;20037;-76
2023/10/29 08:29:41;;;;;;;0.98;0.80;;;15.40;77.30;;;;;;5018938;28;20157;-75
2023/10/29 08:32:07;;;;;;;3.08;1.00;;;15.40;77.30;;;;;;5025449;28;20128;-74
2023/10/29 08:34:33;;;;;;;1.38;0.90;;;15.40;77.30;;;;;;5043122;28;20124;-76
2023/10/29 08:36:59;;;;;;;1.33;0.90;;;15.40;77.30;;;;;;5024454;28;20041;-79
2023/10/29 08:39:25;;;;;;;1.42;0.93;;;15.40;77.30;;;;;;5004999;28;20032;-75
2023/10/29 08:41:51;;;;;;;0.80;0.80;;;15.40;77.30;;;;;;5028290;28;20029;-74
2023/10/29 08:44:19;;;;;;;1.95;1.17;;;15.40;77.30;;;;;;4999607;28;20034;-82
2023/10/29 08:46:46;;;;;;;1.98;1.00;;;15.40;77.30;;;;;;5029553;28;20407;-79
2023/10/29 08:49:12;;;;;;;1.48;0.98;;;15.40;77.20;;;;;;5041390;28;20224;-75
2023/10/29 08:51:38;;;;;;;1.45;1.00;;;15.40;77.20;;;;;;5014816;28;20556;-76
2023/10/29 08:54:04;;;;;;;1.80;0.98;;;15.50;77.30;;;;;;5023983;28;20064;-75
2023/10/29 08:56:33;;;;;;;1.30;1.00;;;15.50;77.20;;;;;;5034280;28;20030;-76
2023/10/29 08:59:01;;;;;;;0.80;0.80;;;15.50;77.20;;;;;;5036700;28;20033;-76
2023/10/29 09:01:27;;;;;;;2.42;1.20;;;15.50;77.20;;;;;;5037409;28;20120;-75
2023/10/29 09:03:52;;;;;;;1.80;0.90;;;15.50;77.10;;;;;;5007105;28;20123;-77
2023/10/29 09:06:20;;;;;;;2.28;1.00;;;15.50;77.20;;;;;;5038094;28;20119;-75
2023/10/29 09:08:46;;;;;;;1.60;0.90;;;15.50;77.10;;;;;;5020862;28;20525;-75
2023/10/29 09:11:15;;;;;;;1.83;0.90;;;15.50;77.10;;;;;;5040667;28;20148;-76
2023/10/29 09:13:40;;;;;;;1.83;0.95;;;15.50;77.10;;;;;;5018297;28;20048;-75
2023/10/29 09:16:07;;;;;;;1.77;0.90;;;15.50;77.10;;;;;;5009217;28;20486;-74
2023/10/29 09:18:32;;;;;;;1.85;0.80;;;15.60;77.10;;;;;;5034785;28;20060;-75
2023/10/29 09:20:58;;;;;;;1.08;0.80;;;15.60;77.10;;;;;;5026872;28;20469;-75
2023/10/29 09:23:24;;;;;;;1.95;1.02;;;15.60;77.10;;;;;;5026424;28;20036;-75
2023/10/29 09:25:50;;;;;;;1.95;0.90;;;15.70;77.10;;;;;;5009595;28;20065;-75
2023/10/29 09:28:16;;;;;;;1.00;0.90;;;15.60;77.00;;;;;;5013687;28;20037;-77
2023/10/29 09:30:42;;;;;;;1.77;1.00;;;15.70;77.00;;;;;;4994252;28;20033;-78
2023/10/29 09:33:08;;;;;;;1.65;1.13;;;15.70;77.00;;;;;;5010942;28;20045;-75
2023/10/29 09:35:37;;;;;;;2.35;1.10;;;15.80;77.00;;;;;;5028695;28;20041;-76
2023/10/29 09:38:03;;;;;;;3.08;1.20;;;15.80;77.00;;;;;;5044561;28;20033;-75
2023/10/29 09:40:29;;;;;;;1.83;1.17;;;15.80;76.90;;;;;;5010936;28;20017;-77
2023/10/29 09:42:56;;;;;;;1.90;0.90;;;15.80;76.80;;;;;;5040897;28;20041;-76
2023/10/29 09:45:26;;;;;;;1.35;1.00;;;15.80;76.80;;;;;;5043768;28;20029;-75
2023/10/29 09:47:53;;;;;;;1.75;0.90;;;15.80;76.80;;;;;;5038981;28;20033;-76
2023/10/29 09:50:20;;;;;;;2.75;1.00;;;15.90;76.90;;;;;;5032251;28;20071;-75
2023/10/29 09:52:52;;;;;;;2.10;1.10;;;15.90;76.80;;;;;;5035774;28;20120;-76
2023/10/29 09:55:22;;;;;;;2.35;0.93;;;15.90;76.80;;;;;;5017707;28;20477;-75
2023/10/29 09:57:51;;;;;;;1.95;1.00;;;15.90;76.80;;;;;;5036683;28;20034;-76
2023/10/29 10:00:17;;;;;;;1.45;1.00;;;16.00;76.90;;;;;;5018787;28;20040;-74
2023/10/29 10:02:56;;;;;;;1.90;1.30;;;16.00;76.90;;;;;;5042753;28;20029;-74
2023/10/29 10:05:24;;;;;;;1.92;0.88;;;16.00;76.90;;;;;;5007749;28;20021;-76
2023/10/29 10:07:55;;;;;;;1.48;1.05;;;16.00;76.80;;;;;;5042513;28;20025;-75
2023/10/29 10:10:21;;;;;;;2.42;1.10;;;16.10;76.90;;;;;;5034956;28;20040;-75
2023/10/29 10:12:51;;;;;;;1.73;0.98;;;16.10;76.90;;;;;;5031785;28;20056;-75
2023/10/29 10:15:18;;;;;;;2.58;1.00;;;16.10;76.90;;;;;;5029603;28;20032;-78
2023/10/29 10:17:56;;;;;;;1.85;0.93;;;16.10;76.80;;;;;;4998026;28;20041;-79
2023/10/29 10:20:22;;;;;;;1.48;1.05;;;16.20;76.90;;;;;;5031462;28;20071;-77
2023/10/29 10:23:09;;;;;;;1.88;1.23;;;16.20;76.80;;;;;;5007276;28;20037;-77
2023/10/29 10:25:35;;;;;;;1.27;0.93;;;16.20;76.90;;;;;;5027168;28;20071;-76
2023/10/29 10:28:03;;;;;;;1.70;1.00;;;16.20;76.80;;;;;;5034793;28;20100;-75
2023/10/29 10:30:37;;;;;;;2.03;1.00;;;16.20;76.80;;;;;;5026650;28;20461;-75
2023/10/29 10:33:20;;;;;;;1.58;0.93;;;16.30;76.90;;;;;;5041318;28;20056;-75
2023/10/29 10:35:56;;;;;;;2.28;1.02;;;16.30;76.80;;;;;;5002438;28;20107;-75
2023/10/29 10:38:22;;;;;;;2.03;0.80;;;16.30;76.70;;;;;;5036047;28;20029;-75
2023/10/29 10:40:57;;;;;;;1.95;0.98;;;16.40;76.70;;;;;;5046389;28;20116;-76
2023/10/29 10:43:24;;;;;;;1.67;0.80;;;16.40;76.80;;;;;;5036275;28;20029;-76
2023/10/29 10:45:51;;;;;;;1.33;0.80;;;16.40;76.70;;;;;;5015135;28;20041;-75
2023/10/29 10:48:17;;;;;;;2.90;1.00;;;16.40;76.60;;;;;;5035638;28;20063;-75
2023/10/29 10:50:43;;;;;;;0.90;0.90;;;16.40;76.60;;;;;;5033171;28;20202;-75
2023/10/29 10:53:10;;;;;;;2.03;0.98;;;16.40;76.50;;;;;;5022843;28;20115;-75
2023/10/29 10:55:37;;;;;;;1.45;0.95;;;16.40;76.60;;;;;;5023968;28;20105;-77
2023/10/29 10:58:04;;;;;;;2.38;1.00;;;16.50;76.60;;;;;;5021656;28;20018;-77
2023/10/29 11:00:34;;;;;;;2.05;1.00;;;16.50;76.60;;;;;;5006684;28;20061;-75
2023/10/29 11:03:01;;;;;;;1.30;0.93;;;16.50;76.50;;;;;;5025460;28;20034;-76
2023/10/29 11:05:30;;;;;;;2.70;1.20;;;16.50;76.50;;;;;;5026946;28;20079;-76
2023/10/29 11:07:57;;;;;;;1.67;1.00;;;16.50;76.50;;;;;;5025614;28;20448;-76
2023/10/29 11:10:25;;;;;;;0.90;0.80;;;16.60;76.60;;;;;;5024058;28;20047;-79
2023/10/29 11:12:51;;;;;;;1.27;0.88;;;16.60;76.60;;;;;;5007548;28;20395;-77
2023/10/29 11:15:17;;;;;;;1.60;0.80;;;16.60;76.60;;;;;;5028842;28;20042;-76
2023/10/29 11:17:59;;;;;;;1.45;0.85;;;16.60;76.60;;;;;;5028202;28;20103;-75
2023/10/29 11:20:49;;;;;;;1.45;1.00;;;16.60;76.70;;;;;;5028200;28;20037;-77
2023/10/29 11:23:16;;;;;;;1.75;0.80;;;16.60;76.70;;;;;;5028682;28;20037;-75
2023/10/29 11:25:42;;;;;;;0.93;0.90;;;16.60;76.60;;;;;;5010543;28;20026;-75
2023/10/29 11:28:34;;;;;;;1.70;1.20;;;16.60;76.60;;;;;;5029845;28;20026;-77
2023/10/29 11:31:19;;;;;;;2.30;1.02;;;16.70;76.80;;;;;;5026804;28;20033;-76
2023/10/29 11:33:46;;;;;;;;;;;16.70;76.70;;;;;;5012477;28;20128;-78
2023/10/29 11:36:32;;;;;;;1.33;0.80;;;16.70;76.50;;;;;;5028630;28;19921;-75
2023/10/29 11:39:18;;;;;;;1.20;0.90;;;16.70;76.60;;;;;;5012336;28;20367;-76
2023/10/29 11:41:46;;;;;;;;;;;16.70;76.70;;;;;;5027915;28;20449;-78
2023/10/29 11:44:19;;;;;;;1.55;0.70;;;16.60;76.50;;;;;;5028388;28;20452;-75
2023/10/29 11:47:02;;;;;;;2.28;1.00;;;16.70;76.50;;;;;;5027829;28;20088;-76
2023/10/29 11:49:44;;;;;;;1.30;0.80;;;16.70;76.70;;;;;;5011818;28;20080;-76
2023/10/29 11:52:10;;;;;;;1.77;1.05;;;16.70;76.70;;;;;;5026247;28;20072;-76
2023/10/29 11:54:38;;;;;;;1.48;1.02;;;16.70;76.60;;;;;;5013365;28;20053;-75
2023/10/29 11:57:07;;;;;;;1.20;0.80;;;16.80;76.70;;;;;;5008551;28;20537;-77
2023/10/29 11:59:33;;;;;;;2.30;1.00;;;16.80;76.70;;;;;;5029137;28;20117;-76
2023/10/29 12:01:59;;;;;;;2.72;1.10;;;16.80;76.70;;;;;;4984790;28;20124;-75
2023/10/29 12:04:31;;;;;;;2.22;1.00;;;16.80;76.60;;;;;;5013247;28;20071;-78
2023/10/29 12:06:58;;;;;;;1.63;1.10;;;16.80;76.70;;;;;;5028218;28;20033;-76
2023/10/29 12:09:25;;;;;;;3.13;1.10;;;16.80;76.60;;;;;;5011240;28;20041;-76
2023/10/29 12:11:53;;;;;;;2.53;1.00;;;16.80;76.60;;;;;;5026811;28;20076;-75
2023/10/29 12:14:39;;;;;;;1.83;1.02;;;16.90;76.60;;;;;;5012062;28;20033;-75
2023/10/29 12:17:09;;;;;;;0.90;0.88;;;16.80;76.60;;;;;;5026583;28;20029;-76
2023/10/29 12:19:46;;;;;;;1.77;0.90;;;16.90;76.50;;;;;;5010736;28;20462;-77
2023/10/29 12:22:24;;;;;;;2.00;1.08;;;16.90;76.50;;;;;;5026384;28;20116;-75
2023/10/29 12:25:00;;;;;;;0.95;0.80;;;16.90;76.60;;;;;;5010193;28;20072;-76
2023/10/29 12:27:30;;;;;;;2.42;1.00;;;16.90;76.50;;;;;;5027614;28;20022;-77
2023/10/29 12:29:56;;;;;;;2.33;1.10;;;16.90;76.50;;;;;;5040645;28;20120;-76
2023/10/29 12:32:24;;;;;;;1.05;0.90;;;16.90;76.50;;;;;;5027015;28;20061;-75
2023/10/29 12:34:51;;;;;;;1.40;1.00;;;17.00;76.50;;;;;;5011515;28;20041;-76
2023/10/29 12:37:21;;;;;;;1.50;0.85;;;17.00;76.50;;;;;;5013882;28;20151;-75
2023/10/29 12:39:48;;;;;;;1.52;0.88;;;17.00;76.50;;;;;;5026104;28;20061;-77
2023/10/29 12:42:14;;;;;;;1.70;0.90;;;17.00;76.40;;;;;;5027596;28;20481;-76
2023/10/29 12:44:54;;;;;;;1.08;0.90;;;17.10;76.50;;;;;;5011821;28;20030;-76
2023/10/29 12:47:20;;;;;;;1.20;0.80;;;17.10;76.50;;;;;;5027023;28;20036;-75